createdAt,value
2024-01-20T00:01:12.037Z,38.47
2024-01-20T00:06:16.446Z,55.00
2024-01-20T00:11:19.870Z,31.27
2024-01-20T00:16:23.390Z,52.40
2024-01-20T00:21:28.179Z,44.78
2024-01-20T00:26:31.186Z,51.45
2024-01-20T00:31:35.474Z,48.67
2024-01-20T00:36:39.860Z,52.42
2024-01-20T00:41:42.946Z,70.18
2024-01-20T00:46:46.647Z,78.35
2024-01-20T00:51:50.920Z,57.50
2024-01-20T00:56:54.009Z,56.08
2024-01-20T01:01:57.003Z,50.72
2024-01-20T01:07:01.310Z,49.33
2024-01-20T01:12:04.672Z,47.08
2024-01-20T01:17:07.845Z,60.00
2024-01-20T01:22:12.182Z,77.07
2024-01-20T01:27:15.120Z,55.65
2024-01-20T01:32:18.260Z,74.22
2024-01-20T01:37:22.715Z,71.47
2024-01-20T01:42:25.649Z,78.65
2024-01-20T01:47:28.877Z,64.47
2024-01-20T01:52:34.424Z,46.25
2024-01-20T01:57:37.601Z,48.72
2024-01-20T02:02:40.522Z,67.63
2024-01-20T02:07:49.457Z,73.63
2024-01-20T02:12:52.878Z,69.25
2024-01-20T02:17:57.225Z,57.55
2024-01-20T02:23:01.585Z,46.90
2024-01-20T02:28:05.170Z,50.53
2024-01-20T02:33:08.192Z,62.63
2024-01-20T02:38:12.557Z,56.75
2024-01-20T02:43:16.633Z,42.15
2024-01-20T02:48:19.907Z,29.52
2024-01-20T02:53:25.450Z,47.60
2024-01-20T02:58:28.570Z,48.03
2024-01-20T03:03:31.651Z,41.63
2024-01-20T03:08:36.012Z,37.60
2024-01-20T03:13:38.970Z,33.85
2024-01-20T03:18:42.248Z,37.47
2024-01-20T03:23:46.624Z,43.05
2024-01-20T03:28:49.742Z,33.08
2024-01-20T03:33:54.020Z,38.55
2024-01-20T03:38:58.497Z,28.35
2024-01-20T03:44:01.513Z,33.08
2024-01-20T03:49:04.911Z,30.70
2024-01-20T03:54:10.308Z,33.15
2024-01-20T03:59:13.457Z,33.13
2024-01-20T04:04:16.403Z,27.05
2024-01-20T04:09:21.660Z,40.00
2024-01-20T04:14:24.629Z,21.23
2024-01-20T04:19:27.639Z,37.15
2024-01-20T04:24:32.081Z,38.53
2024-01-20T04:29:34.997Z,37.50
2024-01-20T04:34:38.307Z,30.75
2024-01-20T04:39:42.874Z,23.58
2024-01-20T04:44:46.189Z,28.67
2024-01-20T04:49:49.839Z,39.70
2024-01-20T04:54:54.619Z,35.15
2024-01-20T04:59:57.638Z,43.90
2024-01-20T05:05:00.553Z,17.30
2024-01-20T05:10:05.155Z,36.95
2024-01-20T05:15:12.847Z,30.98
2024-01-20T05:20:16.576Z,33.10
2024-01-20T05:25:20.938Z,36.20
2024-01-20T05:30:24.916Z,45.83
2024-01-20T05:35:27.885Z,56.50
2024-01-20T05:40:32.192Z,49.63
2024-01-20T05:45:35.244Z,39.00
2024-01-20T05:50:38.309Z,39.95
2024-01-20T05:55:42.671Z,59.40
2024-01-20T06:00:45.903Z,45.75
2024-01-20T06:05:49.386Z,51.75
2024-01-20T06:10:54.041Z,38.38
2024-01-20T06:15:57.331Z,44.38
2024-01-20T06:21:01.120Z,35.17
2024-01-20T06:26:05.719Z,46.80
2024-01-20T06:31:08.629Z,48.88
2024-01-20T06:36:11.596Z,58.38
2024-01-20T06:41:15.865Z,52.70
2024-01-20T06:46:18.835Z,55.80
2024-01-20T06:51:26.919Z,61.63
2024-01-20T06:56:31.288Z,36.70
2024-01-20T07:01:34.335Z,46.38
2024-01-20T07:06:37.285Z,44.63
2024-01-20T07:11:41.728Z,42.67
2024-01-20T07:16:44.614Z,47.08
2024-01-20T07:21:47.532Z,42.90
2024-01-20T07:26:51.855Z,49.28
2024-01-20T07:31:54.767Z,63.28
2024-01-20T07:36:57.703Z,58.85
2024-01-20T07:42:02.021Z,53.90
2024-01-20T07:47:05.388Z,50.15
2024-01-20T07:52:08.969Z,54.35
2024-01-20T07:57:13.317Z,45.55
2024-01-20T08:02:16.455Z,53.60
2024-01-20T08:07:19.406Z,63.00
2024-01-20T08:12:23.848Z,62.20
2024-01-20T08:17:27.023Z,45.70
2024-01-20T08:22:30.035Z,50.92
2024-01-20T08:27:34.402Z,48.75
2024-01-20T08:32:38.664Z,62.22
2024-01-20T08:37:41.748Z,61.65
2024-01-20T08:42:46.103Z,38.67
2024-01-20T08:47:49.180Z,51.40
2024-01-20T08:52:52.264Z,59.75
2024-01-20T08:57:58.039Z,62.58
2024-01-20T09:03:01.085Z,58.25
2024-01-20T09:08:06.178Z,51.60
2024-01-20T09:13:11.075Z,63.63
2024-01-20T09:18:17.387Z,36.92
2024-01-20T09:23:20.613Z,48.15
2024-01-20T09:28:26.303Z,40.40
2024-01-20T09:33:29.917Z,38.67
2024-01-20T09:38:32.994Z,47.20
2024-01-20T09:43:39.402Z,36.60
2024-01-20T09:48:44.555Z,31.45
2024-01-20T09:53:49.372Z,30.80
2024-01-20T09:58:54.705Z,40.05
2024-01-20T10:04:02.749Z,17.48
2024-01-20T10:09:05.871Z,28.40
2024-01-20T10:14:10.216Z,27.30
2024-01-20T10:19:13.289Z,28.42
2024-01-20T10:24:22.305Z,23.45
2024-01-20T10:29:26.975Z,21.50
2024-01-20T10:34:30.754Z,24.20
2024-01-20T10:39:38.365Z,26.15
2024-01-20T10:44:44.387Z,22.80
2024-01-20T10:49:51.108Z,21.50
2024-01-20T10:54:54.202Z,24.38
2024-01-20T11:00:00.863Z,23.70
2024-01-20T11:05:04.565Z,22.10
2024-01-20T11:10:09.946Z,22.65
2024-01-20T11:15:19.280Z,22.02
2024-01-20T11:20:22.366Z,23.20
2024-01-20T11:25:25.826Z,17.90
2024-01-20T11:30:32.002Z,17.73
2024-01-20T11:35:38.520Z,12.40
2024-01-20T11:40:41.628Z,21.10
2024-01-20T11:45:46.181Z,13.50
2024-01-20T11:50:49.450Z,17.50
2024-01-20T11:55:57.068Z,17.80
2024-01-20T12:01:02.711Z,14.68
2024-01-20T12:06:09.730Z,16.02
2024-01-20T12:11:21.055Z,19.55
2024-01-20T12:16:26.250Z,20.70
2024-01-20T12:21:30.073Z,22.10
2024-01-20T12:26:33.932Z,15.57
2024-01-20T12:31:38.471Z,14.60
2024-01-20T12:36:41.387Z,10.43
2024-01-20T12:41:44.438Z,16.52
2024-01-20T12:46:49.140Z,11.15
2024-01-20T12:51:52.241Z,19.17
2024-01-20T12:56:55.294Z,14.35
2024-01-20T13:01:59.542Z,16.67
2024-01-20T13:07:02.445Z,16.45
2024-01-20T13:12:06.269Z,16.05
2024-01-20T13:17:10.846Z,14.00
2024-01-20T13:22:13.802Z,16.02
2024-01-20T13:27:16.791Z,16.48
2024-01-20T13:32:21.325Z,11.65
2024-01-20T13:37:25.329Z,13.18
2024-01-20T13:42:28.474Z,14.20
2024-01-20T13:47:32.910Z,13.05
2024-01-20T13:52:35.935Z,12.57
2024-01-20T13:57:38.959Z,9.95
2024-01-20T14:02:44.708Z,17.20
2024-01-20T14:07:47.691Z,9.63
2024-01-20T14:12:50.621Z,14.60
2024-01-20T14:17:54.950Z,14.43
2024-01-20T14:22:58.008Z,13.95
2024-01-20T14:28:02.124Z,14.48
2024-01-20T14:33:06.987Z,11.90
2024-01-20T14:38:10.064Z,15.70
2024-01-20T14:43:13.022Z,12.05
2024-01-20T14:48:17.371Z,14.15
2024-01-20T14:53:20.991Z,11.18
2024-01-20T14:58:23.916Z,11.10
2024-01-20T15:03:28.257Z,10.38
2024-01-20T15:08:31.211Z,10.23
2024-01-20T15:13:34.235Z,12.23
2024-01-20T15:18:38.673Z,11.18
2024-01-20T15:23:41.793Z,11.60
2024-01-20T15:28:45.401Z,11.85
2024-01-20T15:33:49.841Z,11.63
2024-01-20T15:38:52.849Z,10.82
2024-01-20T15:43:55.873Z,9.15
2024-01-20T15:49:00.352Z,12.85
2024-01-20T15:54:03.348Z,10.38
2024-01-20T15:59:06.273Z,10.00
2024-01-20T16:04:10.776Z,7.80
2024-01-20T16:09:15.628Z,11.73
2024-01-20T16:14:23.480Z,11.73
2024-01-20T16:19:28.843Z,11.88
2024-01-20T16:24:31.898Z,9.30
2024-01-20T16:29:35.151Z,9.60
2024-01-20T16:34:39.783Z,8.27
2024-01-20T16:39:42.973Z,7.10
2024-01-20T16:44:46.181Z,6.70
2024-01-20T16:49:50.700Z,7.93
2024-01-20T16:54:53.765Z,6.57
2024-01-20T16:59:56.652Z,9.10
2024-01-20T17:05:01.083Z,6.63
2024-01-20T17:10:04.477Z,8.55
2024-01-20T17:15:09.619Z,7.90
2024-01-20T17:20:14.542Z,4.78
2024-01-20T17:25:17.614Z,4.60
2024-01-20T17:30:20.677Z,7.30
2024-01-20T17:35:25.334Z,5.55
2024-01-20T17:40:28.433Z,11.07
2024-01-20T17:45:31.473Z,11.63
2024-01-20T17:50:35.849Z,11.23
2024-01-20T17:55:38.926Z,9.82
2024-01-20T18:00:42.758Z,10.95
2024-01-20T18:05:47.239Z,17.85
2024-01-20T18:10:51.748Z,13.43
2024-01-20T18:15:54.899Z,9.88
2024-01-20T18:20:59.375Z,13.55
2024-01-20T18:26:02.320Z,15.60
2024-01-20T18:31:08.209Z,10.52
2024-01-20T18:36:13.151Z,14.32
2024-01-20T18:41:18.242Z,12.80
2024-01-20T18:46:22.058Z,14.35
2024-01-20T18:51:26.468Z,10.40
2024-01-20T18:56:29.559Z,13.07
2024-01-20T19:01:33.770Z,15.57
2024-01-20T19:06:38.326Z,16.30
2024-01-20T19:11:41.492Z,16.35
2024-01-20T19:16:44.502Z,17.50
2024-01-20T19:21:49.592Z,14.50
2024-01-20T19:26:52.609Z,16.88
2024-01-20T19:31:55.617Z,19.42
2024-01-20T19:36:59.919Z,18.50
2024-01-20T19:42:03.006Z,19.90
2024-01-20T19:47:07.527Z,24.35
2024-01-20T19:52:11.887Z,25.77
2024-01-20T19:57:16.294Z,25.83
2024-01-20T20:02:19.335Z,25.08
2024-01-20T20:07:23.734Z,22.75
2024-01-20T20:12:26.653Z,24.42
2024-01-20T20:17:29.636Z,23.15
2024-01-20T20:22:33.994Z,21.85
2024-01-20T20:27:36.971Z,19.25
2024-01-20T20:32:40.864Z,23.00
2024-01-20T20:37:45.496Z,25.63
2024-01-20T20:42:48.609Z,22.33
2024-01-20T20:47:51.682Z,23.48
2024-01-20T20:52:56.025Z,23.75
2024-01-20T20:57:58.995Z,20.90
2024-01-20T21:03:02.147Z,23.67
2024-01-20T21:08:07.057Z,26.23
2024-01-20T21:13:11.430Z,29.35
2024-01-20T21:18:15.285Z,28.00
2024-01-20T21:23:19.841Z,25.23
2024-01-20T21:28:23.476Z,29.23
2024-01-20T21:33:26.703Z,25.88
2024-01-20T21:38:31.073Z,29.48
2024-01-20T21:43:34.059Z,30.42
2024-01-20T21:48:37.778Z,28.75
2024-01-20T21:53:42.546Z,29.63
2024-01-20T21:58:45.554Z,32.35
2024-01-20T22:03:49.140Z,27.38
2024-01-20T22:08:53.532Z,27.33
2024-01-20T22:13:56.604Z,29.48
2024-01-20T22:18:59.724Z,27.52
2024-01-20T22:24:04.284Z,32.22
2024-01-20T22:29:18.775Z,32.58
2024-01-20T22:34:31.814Z,30.98
2024-01-20T22:39:38.151Z,34.40
2024-01-20T22:44:41.117Z,31.73
2024-01-20T22:49:44.507Z,35.80
2024-01-20T22:54:49.653Z,30.70
2024-01-20T22:59:52.797Z,31.73
2024-01-20T23:04:56.347Z,35.15
2024-01-20T23:10:00.815Z,32.10
2024-01-20T23:15:04.090Z,34.50
2024-01-20T23:20:09.140Z,31.25
2024-01-20T23:25:13.530Z,30.73
2024-01-20T23:30:17.163Z,31.15
2024-01-20T23:35:20.174Z,35.05
2024-01-20T23:40:24.512Z,37.10
2024-01-20T23:45:28.448Z,37.17
2024-01-20T23:50:31.581Z,35.00
2024-01-20T23:55:35.854Z,35.08
